Time;durP1;ratioP1;P1;durP2;ratioP2;P2;SDS_P1;SDS_P2;PMS_P1;PMS_P2;Temp;Humidity;BMP_temperature;BMP_pressure;BME280_temperature;BME280_humidity;BME280_pressure;Samples;Min_cycle;Max_cycle;Signal;HPM_P1;HPM_P2
2022/03/29 00:01:15;;;;;;;;;66.25;53.25;15.60;38.10;;;;;;4975218;28;8810;-62
2022/03/29 00:03:41;;;;;;;;;72.75;58.00;15.50;38.10;;;;;;4976483;28;9401;-62
2022/03/29 00:06:07;;;;;;;;;73.00;58.00;15.60;38.30;;;;;;4978897;28;8766;-61
2022/03/29 00:08:32;;;;;;;;;69.75;55.50;15.40;38.80;;;;;;4975167;28;8802;-63
2022/03/29 00:10:59;;;;;;;;;67.50;52.25;14.40;41.60;;;;;;4967006;28;8790;-63
2022/03/29 00:13:25;;;;;;;;;71.50;57.25;14.10;42.20;;;;;;4975359;28;8816;-63
2022/03/29 00:15:50;;;;;;;;;67.00;53.00;13.60;43.70;;;;;;4959352;28;8772;-64
2022/03/29 00:18:16;;;;;;;;;62.50;50.00;13.20;44.80;;;;;;4959108;28;8741;-62
2022/03/29 00:20:42;;;;;;;;;60.00;49.00;13.00;45.40;;;;;;4958915;28;9025;-62
2022/03/29 00:23:08;;;;;;;;;67.00;54.00;13.10;45.20;;;;;;4958968;28;8792;-63
2022/03/29 00:25:34;;;;;;;;;67.75;55.00;13.20;44.70;;;;;;4958847;28;8877;-63
2022/03/29 00:28:00;;;;;;;;;58.75;48.00;13.10;45.40;;;;;;4959089;28;8769;-60
2022/03/29 00:30:25;;;;;;;;;64.25;51.00;13.10;45.40;;;;;;4958862;28;8765;-61
2022/03/29 00:32:51;;;;;;;;;61.00;49.75;13.10;45.20;;;;;;4958987;28;9500;-62
2022/03/29 00:35:17;;;;;;;;;60.50;48.50;13.60;43.80;;;;;;4958833;28;8887;-62
2022/03/29 00:37:44;;;;;;;;;58.75;48.00;14.00;42.80;;;;;;4958958;28;8779;-62
2022/03/29 00:40:12;;;;;;;;;59.50;47.50;14.50;41.20;;;;;;4958459;28;8828;-62
2022/03/29 00:42:38;;;;;;;;;58.75;48.00;14.70;40.40;;;;;;4958818;28;9824;-62
2022/03/29 00:45:05;;;;;;;;;59.00;48.50;14.90;40.10;;;;;;4958588;28;8780;-62
2022/03/29 00:47:31;;;;;;;;;56.50;46.75;14.80;39.80;;;;;;4958834;28;8760;-62
2022/03/29 00:49:57;;;;;;;;;58.00;48.50;14.90;40.00;;;;;;4958867;28;9407;-62
2022/03/29 00:52:24;;;;;;;;;55.25;46.50;15.00;39.30;;;;;;4958672;28;8835;-62
2022/03/29 00:54:50;;;;;;;;;61.00;50.75;15.10;38.80;;;;;;4958382;28;8788;-62
2022/03/29 00:57:16;;;;;;;;;62.50;50.25;15.20;38.70;;;;;;4958642;28;8761;-62
2022/03/29 00:59:44;;;;;;;;;58.25;47.00;15.20;38.80;;;;;;4958250;28;8824;-62
2022/03/29 01:02:10;;;;;;;;;58.00;47.00;15.20;38.80;;;;;;4958484;28;8756;-62
2022/03/29 01:04:36;;;;;;;;;54.50;46.00;15.50;38.40;;;;;;4958217;28;8769;-61
2022/03/29 01:07:03;;;;;;;;;58.00;47.00;15.60;38.00;;;;;;4958168;28;8780;-62
2022/03/29 01:09:31;;;;;;;;;58.75;49.00;15.40;38.30;;;;;;4958159;28;8769;-61
2022/03/29 01:11:57;;;;;;;;;61.00;48.00;15.40;38.30;;;;;;4958182;28;8769;-62
2022/03/29 01:14:25;;;;;;;;;64.25;51.00;15.40;38.60;;;;;;4962242;28;9585;-61
2022/03/29 01:19:37;;;;;;;;;68.50;53.75;15.40;39.10;;;;;;4957996;28;8796;-62
2022/03/29 01:22:07;;;;;;;;;62.00;49.50;15.30;38.90;;;;;;4958154;28;8772;-62
2022/03/29 01:24:40;;;;;;;;;69.75;55.75;15.30;38.90;;;;;;4958073;28;8761;-62
2022/03/29 01:27:10;;;;;;;;;76.00;62.25;15.40;39.00;;;;;;4958138;28;9407;-62
2022/03/29 01:29:38;;;;;;;;;75.50;62.50;15.40;39.00;;;;;;4957764;28;8811;-62
2022/03/29 01:32:08;;;;;;;;;70.75;57.25;15.20;39.80;;;;;;4957873;28;8806;-62
2022/03/29 01:34:37;;;;;;;;;76.00;58.00;15.30;39.40;;;;;;4957712;28;8765;-62
2022/03/29 01:37:06;;;;;;;;;75.50;60.50;15.20;39.30;;;;;;4957531;28;8760;-63
2022/03/29 01:39:34;;;;;;;;;80.75;64.00;15.20;39.40;;;;;;4957307;28;8839;-65
2022/03/29 01:42:00;;;;;;;;;71.50;56.00;14.90;39.90;;;;;;4957327;28;8888;-63
2022/03/29 01:44:26;;;;;;;;;76.25;60.00;14.80;40.10;;;;;;4957493;28;8768;-62
2022/03/29 01:46:53;;;;;;;;;69.75;55.25;14.20;41.30;;;;;;4957698;28;8786;-62
2022/03/29 01:49:20;;;;;;;;;71.00;56.25;14.00;42.10;;;;;;4957660;28;8768;-62
2022/03/29 01:51:46;;;;;;;;;80.75;67.00;14.30;41.90;;;;;;4957342;28;8753;-62
2022/03/29 01:54:12;;;;;;;;;85.75;79.75;14.60;41.00;;;;;;4957278;28;8773;-63
2022/03/29 01:56:37;;;;;;;;;79.50;67.50;14.70;40.50;;;;;;4957185;28;8761;-62
2022/03/29 01:59:06;;;;;;;;;83.75;74.00;14.70;40.60;;;;;;4957360;28;8764;-62
2022/03/29 02:01:41;;;;;;;;;85.00;77.25;15.00;39.80;;;;;;4957145;28;8769;-62
2022/03/29 02:04:07;;;;;;;;;85.00;80.50;15.20;39.40;;;;;;4957149;28;8871;-64
2022/03/29 02:06:33;;;;;;;;;86.00;81.50;15.00;39.30;;;;;;4956977;28;8795;-63
2022/03/29 02:09:00;;;;;;;;;93.25;88.00;14.80;39.40;;;;;;4956999;28;8771;-63
2022/03/29 02:11:26;;;;;;;;;89.50;86.50;14.80;38.60;;;;;;4957012;28;8756;-62
2022/03/29 02:13:53;;;;;;;;;89.75;85.25;14.70;38.80;;;;;;4957324;28;8835;-63
2022/03/29 02:16:19;;;;;;;;;92.75;90.75;14.30;39.40;;;;;;4956844;28;8782;-63
2022/03/29 02:18:44;;;;;;;;;94.00;90.25;14.10;39.80;;;;;;4956804;28;8882;-62
2022/03/29 02:21:14;;;;;;;;;88.00;80.75;14.00;39.70;;;;;;4956752;28;8836;-62
2022/03/29 02:23:40;;;;;;;;;86.00;83.75;14.30;39.60;;;;;;4956733;28;8780;-64
2022/03/29 02:26:06;;;;;;;;;85.00;78.25;14.40;39.40;;;;;;4956702;28;8776;-63
2022/03/29 02:28:32;;;;;;;;;83.50;73.00;14.30;39.80;;;;;;4956760;28;9407;-63
2022/03/29 02:30:57;;;;;;;;;90.25;79.25;14.30;39.40;;;;;;4956835;28;9465;-63
2022/03/29 02:33:23;;;;;;;;;87.00;77.75;14.50;39.40;;;;;;4956596;28;8809;-63
2022/03/29 02:35:49;;;;;;;;;80.50;75.00;14.70;38.40;;;;;;4956651;28;8765;-63
2022/03/29 02:38:17;;;;;;;;;85.50;80.75;14.60;38.70;;;;;;4956277;28;8792;-64
2022/03/29 02:40:44;;;;;;;;;73.00;57.00;14.40;39.60;;;;;;4956500;28;8839;-64
2022/03/29 02:43:10;;;;;;;;;78.50;64.50;13.90;41.10;;;;;;4956721;28;8910;-63
2022/03/29 02:45:36;;;;;;;;;80.50;71.50;14.10;41.20;;;;;;4956467;28;8896;-63
2022/03/29 02:48:02;;;;;;;;;82.25;69.25;14.50;40.60;;;;;;4956464;28;8749;-62
2022/03/29 02:50:28;;;;;;;;;75.25;59.00;14.60;40.50;;;;;;4956400;28;8780;-62
2022/03/29 02:52:56;;;;;;;;;79.25;67.50;14.20;40.90;;;;;;4956328;28;8862;-63
2022/03/29 02:55:29;;;;;;;;;80.00;65.00;14.10;41.50;;;;;;4956368;28;8764;-62
2022/03/29 02:57:56;;;;;;;;;77.25;63.00;14.60;40.80;;;;;;4956381;28;8783;-62
2022/03/29 03:00:23;;;;;;;;;72.00;58.00;14.30;41.20;;;;;;4956467;28;9478;-62
2022/03/29 03:02:54;;;;;;;;;74.75;61.50;14.40;41.10;;;;;;4956296;28;8761;-62
2022/03/29 03:05:21;;;;;;;;;79.50;67.00;14.20;41.50;;;;;;4960575;28;8775;-65
2022/03/29 03:07:47;;;;;;;;;82.00;64.50;14.10;41.20;;;;;;4964650;28;8790;-62
2022/03/29 03:10:14;;;;;;;;;81.75;70.25;13.90;41.70;;;;;;4960357;28;8796;-62
2022/03/29 03:12:45;;;;;;;;;74.25;61.25;13.60;42.60;;;;;;4956147;28;8911;-62
2022/03/29 03:15:13;;;;;;;;;71.50;56.00;14.10;41.90;;;;;;4956226;29;8795;-62
2022/03/29 03:17:39;;;;;;;;;76.50;59.75;14.40;41.80;;;;;;4956159;29;8765;-62
2022/03/29 03:20:05;;;;;;;;;73.50;58.50;14.60;41.20;;;;;;4956262;29;8819;-62
2022/03/29 03:22:32;;;;;;;;;75.25;60.00;14.30;41.20;;;;;;4956007;29;8801;-62
2022/03/29 03:24:58;;;;;;;;;79.50;62.50;14.30;41.30;;;;;;4956343;29;8769;-62
2022/03/29 03:27:24;;;;;;;;;74.25;57.75;14.40;41.10;;;;;;4956236;29;8869;-62
2022/03/29 03:29:49;;;;;;;;;70.00;55.25;14.40;41.30;;;;;;4955049;29;8773;-62
2022/03/29 03:32:15;;;;;;;;;80.75;64.75;13.80;42.40;;;;;;4955959;29;8859;-63
2022/03/29 03:34:41;;;;;;;;;76.00;60.75;14.10;42.30;;;;;;4956271;28;8769;-60
2022/03/29 03:37:08;;;;;;;;;74.00;60.00;14.50;41.60;;;;;;4956051;28;8794;-62
2022/03/29 03:39:37;;;;;;;;;75.25;58.00;14.60;41.00;;;;;;4965673;28;8826;-62
2022/03/29 03:42:12;;;;;;;;;75.00;59.00;14.50;41.50;;;;;;4964694;28;8855;-62
2022/03/29 03:44:39;;;;;;;;;73.00;58.50;14.10;42.20;;;;;;4959777;28;8781;-62
2022/03/29 03:47:07;;;;;;;;;67.25;52.50;13.90;43.40;;;;;;4959657;28;8903;-62
2022/03/29 03:49:34;;;;;;;;;75.25;60.25;14.00;44.40;;;;;;4959626;28;8765;-62
2022/03/29 03:52:00;;;;;;;;;71.00;56.75;14.30;42.80;;;;;;4959742;28;9454;-62
2022/03/29 03:54:26;;;;;;;;;68.00;51.75;14.50;42.40;;;;;;4959774;28;8899;-62
2022/03/29 03:56:52;;;;;;;;;69.00;57.00;14.20;42.90;;;;;;4959454;28;8768;-62
2022/03/29 03:59:18;;;;;;;;;64.25;51.25;14.70;42.20;;;;;;4959343;28;8881;-62
2022/03/29 04:01:44;;;;;;;;;71.25;56.25;15.10;41.20;;;;;;4959534;28;8809;-62
2022/03/29 04:04:10;;;;;;;;;73.25;59.75;15.20;40.40;;;;;;4959371;28;8881;-62
2022/03/29 04:06:36;;;;;;;;;75.00;58.50;15.40;40.60;;;;;;4959503;28;8887;-62
2022/03/29 04:09:02;;;;;;;;;74.00;59.25;15.30;40.50;;;;;;4959284;28;8761;-62
2022/03/29 04:11:28;;;;;;;;;75.75;59.75;15.20;40.80;;;;;;4959231;28;8883;-62
2022/03/29 04:13:54;;;;;;;;;74.25;60.00;15.00;40.80;;;;;;4959393;28;8796;-62
2022/03/29 04:16:20;;;;;;;;;74.00;58.25;15.10;40.70;;;;;;4959116;28;9418;-62
2022/03/29 04:18:46;;;;;;;;;69.25;55.00;15.00;41.00;;;;;;4958973;28;8768;-62
2022/03/29 04:21:12;;;;;;;;;74.00;57.00;14.90;41.50;;;;;;4959196;28;8785;-62
2022/03/29 04:23:37;;;;;;;;;73.50;60.00;14.70;41.90;;;;;;4958887;28;8745;-62
2022/03/29 04:26:04;;;;;;;;;70.25;57.25;14.60;41.90;;;;;;4959118;28;8792;-62
2022/03/29 04:28:31;;;;;;;;;72.00;60.00;14.60;42.00;;;;;;4958888;28;8867;-60
2022/03/29 04:30:59;;;;;;;;;74.50;58.00;14.80;41.80;;;;;;4959104;28;8768;-62
2022/03/29 04:33:28;;;;;;;;;76.00;59.50;15.10;41.10;;;;;;4961021;28;8788;-62
2022/03/29 04:35:54;;;;;;;;;75.00;60.25;14.80;41.30;;;;;;4967102;28;8761;-62
2022/03/29 04:38:21;;;;;;;;;73.50;59.25;14.80;41.20;;;;;;4969086;28;8772;-62
2022/03/29 04:40:47;;;;;;;;;73.25;57.75;14.70;41.40;;;;;;4976350;28;8810;-62
2022/03/29 04:43:13;;;;;;;;;71.75;57.50;14.80;41.00;;;;;;4968287;28;9535;-62
2022/03/29 04:45:38;;;;;;;;;73.00;59.50;14.70;40.90;;;;;;4973355;28;8829;-62
2022/03/29 04:48:05;;;;;;;;;75.25;63.75;15.00;40.80;;;;;;4945940;28;8831;-62
2022/03/29 04:50:31;;;;;;;;;71.00;56.25;15.20;39.90;;;;;;4959706;28;8798;-62
2022/03/29 04:52:57;;;;;;;;;73.25;57.00;15.20;39.80;;;;;;4972327;28;8822;-60
2022/03/29 04:55:23;;;;;;;;;70.50;58.00;15.30;39.50;;;;;;4975057;28;8799;-60
2022/03/29 04:57:50;;;;;;;;;70.25;58.25;15.30;39.50;;;;;;4977353;28;8791;-60
2022/03/29 05:00:20;;;;;;;;;75.50;60.00;15.30;39.90;;;;;;4977736;28;8953;-62
2022/03/29 05:02:47;;;;;;;;;73.50;60.00;15.30;39.90;;;;;;4977790;28;8969;-63
2022/03/29 05:05:14;;;;;;;;;78.00;62.00;15.10;40.10;;;;;;4977737;28;8795;-62
2022/03/29 05:07:43;;;;;;;;;76.25;65.75;15.00;40.10;;;;;;4977519;28;8826;-62
2022/03/29 05:10:11;;;;;;;;;70.25;56.75;15.10;40.20;;;;;;4977240;28;8814;-61
2022/03/29 05:12:41;;;;;;;;;79.25;64.25;15.10;39.70;;;;;;4966703;28;8812;-61
2022/03/29 05:15:07;;;;;;;;;82.75;65.75;15.10;40.20;;;;;;4971548;28;8783;-62
2022/03/29 05:17:34;;;;;;;;;79.25;66.75;15.20;39.80;;;;;;4976990;28;8778;-61
2022/03/29 05:20:04;;;;;;;;;79.25;69.25;15.30;39.50;;;;;;4976794;28;8786;-60
2022/03/29 05:22:30;;;;;;;;;80.75;67.00;15.20;40.50;;;;;;4977189;28;8865;-61
2022/03/29 05:24:56;;;;;;;;;72.00;59.25;15.00;39.90;;;;;;4977129;28;9540;-62
2022/03/29 05:27:22;;;;;;;;;75.50;61.25;15.20;39.40;;;;;;4977129;28;9686;-62
2022/03/29 05:29:48;;;;;;;;;81.25;65.75;15.20;39.30;;;;;;4977072;28;8861;-61
2022/03/29 05:32:18;;;;;;;;;77.00;63.50;15.10;39.90;;;;;;4977227;28;8762;-61
2022/03/29 05:34:48;;;;;;;;;78.00;63.00;14.70;40.40;;;;;;4976998;28;8845;-62
2022/03/29 05:37:14;;;;;;;;;83.25;71.25;14.60;40.80;;;;;;4977115;28;8767;-62
2022/03/29 05:39:40;;;;;;;;;83.00;67.75;14.70;41.30;;;;;;4976590;28;8841;-62
2022/03/29 05:42:07;;;;;;;;;84.25;70.00;14.50;41.40;;;;;;4976376;28;8809;-62
2022/03/29 05:44:32;;;;;;;;;82.75;73.25;14.80;40.90;;;;;;4976353;28;8783;-61
2022/03/29 05:49:42;;;;;;;;;110.25;100.00;14.90;40.60;;;;;;4976783;28;8754;-62
2022/03/29 05:52:08;;;;;;;;;118.75;108.25;14.70;41.80;;;;;;4976537;28;8872;-62
2022/03/29 05:54:35;;;;;;;;;123.25;117.25;15.00;40.70;;;;;;4976529;28;8936;-62
2022/03/29 05:57:01;;;;;;;;;132.75;127.25;15.00;40.40;;;;;;4976668;28;8871;-61
2022/03/29 05:59:27;;;;;;;;;125.50;116.25;14.70;41.00;;;;;;4976405;28;8881;-61
2022/03/29 06:01:53;;;;;;;;;144.25;131.75;15.30;40.00;;;;;;4976079;28;8755;-62
2022/03/29 06:04:22;;;;;;;;;121.75;115.75;15.00;40.50;;;;;;4976400;28;8952;-62
2022/03/29 06:06:49;;;;;;;;;128.25;122.75;14.90;41.30;;;;;;4976660;28;8794;-62
2022/03/29 06:09:15;;;;;;;;;130.75;121.50;15.00;40.60;;;;;;4976352;28;9424;-62
2022/03/29 06:11:41;;;;;;;;;134.75;127.25;15.10;40.80;;;;;;4976268;28;8779;-62
2022/03/29 06:14:07;;;;;;;;;133.25;124.00;15.00;40.80;;;;;;4976631;28;9429;-61
2022/03/29 06:16:32;;;;;;;;;114.50;109.00;14.80;41.50;;;;;;4976169;28;8785;-61
2022/03/29 06:18:58;;;;;;;;;132.50;125.50;14.70;41.80;;;;;;4976295;28;8782;-60
2022/03/29 06:21:24;;;;;;;;;139.75;127.25;14.80;42.00;;;;;;4976234;28;8828;-61
2022/03/29 06:23:51;;;;;;;;;110.25;108.75;14.80;41.80;;;;;;4975909;28;8766;-61
2022/03/29 06:26:18;;;;;;;;;114.25;106.00;14.80;41.80;;;;;;4975898;28;8881;-61
2022/03/29 06:28:44;;;;;;;;;113.25;108.75;15.20;41.00;;;;;;4975926;28;8785;-60
2022/03/29 06:31:09;;;;;;;;;107.00;98.25;15.60;39.90;;;;;;4975621;28;8806;-61
2022/03/29 06:33:36;;;;;;;;;119.50;108.00;15.90;39.20;;;;;;4975824;28;8782;-61
2022/03/29 06:36:02;;;;;;;;;109.00;102.50;15.80;39.60;;;;;;4976018;28;8762;-61
2022/03/29 06:38:31;;;;;;;;;114.50;104.00;16.10;38.80;;;;;;4975324;28;8836;-61
2022/03/29 06:40:59;;;;;;;;;107.50;102.50;16.30;38.80;;;;;;4975703;28;8806;-61
2022/03/29 06:43:25;;;;;;;;;110.75;101.00;16.50;38.60;;;;;;4975957;28;8802;-61
2022/03/29 06:45:51;;;;;;;;;110.25;99.75;16.70;37.70;;;;;;4975716;28;8846;-61
2022/03/29 06:48:17;;;;;;;;;104.75;94.50;16.90;37.10;;;;;;4975996;28;8778;-61
2022/03/29 06:50:43;;;;;;;;;94.50;87.00;17.00;37.70;;;;;;4975953;28;8813;-62
2022/03/29 06:53:09;;;;;;;;;94.25;85.75;16.90;37.70;;;;;;4975364;28;8790;-62
2022/03/29 06:55:35;;;;;;;;;100.25;95.75;16.70;37.50;;;;;;4975446;28;8775;-62
2022/03/29 06:58:03;;;;;;;;;108.00;100.50;16.80;37.60;;;;;;4975619;28;8770;-61
2022/03/29 07:00:29;;;;;;;;;101.75;95.75;16.50;38.10;;;;;;4975705;28;8908;-61
2022/03/29 07:02:54;;;;;;;;;89.25;84.75;16.80;38.80;;;;;;4975390;28;8873;-61
2022/03/29 07:05:20;;;;;;;;;94.00;90.25;16.70;38.00;;;;;;4975715;28;8802;-61
2022/03/29 07:07:46;;;;;;;;;102.75;93.75;16.00;39.90;;;;;;4975700;28;9432;-61
2022/03/29 07:13:03;;;;;;;;;99.25;96.25;16.00;40.70;;;;;;4977887;28;8778;-60
2022/03/29 07:15:30;;;;;;;;;98.50;93.50;16.60;39.70;;;;;;4979605;28;9818;-61
2022/03/29 07:17:56;;;;;;;;;96.00;92.75;17.20;38.50;;;;;;4979609;28;8786;-62
2022/03/29 07:20:23;;;;;;;;;97.00;93.00;17.60;37.60;;;;;;4979333;28;8802;-61
2022/03/29 07:22:50;;;;;;;;;102.25;96.50;17.10;38.60;;;;;;4979329;28;8802;-64
2022/03/29 07:25:20;;;;;;;;;105.25;97.75;16.70;39.90;;;;;;4962216;28;8786;-64
2022/03/29 07:27:49;;;;;;;;;75.75;62.00;17.10;39.20;;;;;;4979241;28;8754;-65
2022/03/29 07:30:15;;;;;;;;;82.50;76.25;17.00;39.50;;;;;;4979152;28;8824;-67
2022/03/29 07:32:44;;;;;;;;;84.50;73.75;17.40;38.80;;;;;;4979229;28;8905;-66
2022/03/29 07:35:10;;;;;;;;;82.75;79.00;17.30;38.30;;;;;;4979031;28;8796;-63
2022/03/29 07:37:36;;;;;;;;;81.50;72.25;17.20;39.10;;;;;;4979320;28;8770;-66
2022/03/29 07:40:03;;;;;;;;;82.00;72.75;17.10;39.10;;;;;;4978789;28;9381;-66
2022/03/29 07:42:28;;;;;;;;;73.75;65.25;17.60;38.50;;;;;;4979053;28;8814;-65
2022/03/29 07:44:54;;;;;;;;;80.00;69.25;17.70;37.90;;;;;;4978783;28;8832;-66
2022/03/29 07:47:20;;;;;;;;;82.50;75.25;18.00;37.30;;;;;;4978804;28;8751;-67
2022/03/29 07:49:46;;;;;;;;;75.50;69.25;18.20;36.90;;;;;;4978788;28;8771;-64
2022/03/29 07:52:15;;;;;;;;;81.00;72.25;18.40;36.10;;;;;;4979112;28;8829;-63
2022/03/29 07:54:41;;;;;;;;;83.00;75.50;18.50;36.00;;;;;;4978965;28;8770;-67
2022/03/29 07:57:08;;;;;;;;;78.00;68.50;18.40;36.50;;;;;;4978745;28;8778;-63
2022/03/29 07:59:37;;;;;;;;;80.75;62.75;18.10;37.20;;;;;;4978501;28;8767;-64
2022/03/29 08:02:05;;;;;;;;;78.50;66.50;18.10;37.60;;;;;;4978638;28;8781;-64
2022/03/29 08:04:31;;;;;;;;;74.25;66.25;18.60;36.30;;;;;;4978580;28;8763;-65
2022/03/29 08:06:57;;;;;;;;;77.25;66.50;18.50;36.60;;;;;;4978621;28;8754;-66
2022/03/29 08:09:23;;;;;;;;;73.50;61.75;18.60;35.80;;;;;;4978504;28;8833;-65
2022/03/29 08:11:49;;;;;;;;;73.25;62.50;18.60;36.30;;;;;;4978501;28;8763;-65
2022/03/29 08:14:15;;;;;;;;;78.75;66.00;18.30;35.00;;;;;;4978705;28;8777;-63
2022/03/29 08:16:41;;;;;;;;;77.00;68.75;18.60;35.60;;;;;;4978329;28;8852;-64
2022/03/29 08:19:07;;;;;;;;;78.25;65.25;18.70;34.80;;;;;;4978316;28;8766;-65
2022/03/29 08:21:49;;;;;;;;;72.50;60.00;18.80;34.30;;;;;;4978202;28;8805;-64
2022/03/29 08:24:26;;;;;;;;;67.25;54.25;18.70;32.20;;;;;;4977827;28;8774;-64
2022/03/29 08:26:53;;;;;;;;;69.00;56.00;18.70;32.30;;;;;;4978249;28;8808;-63
2022/03/29 08:29:21;;;;;;;;;72.25;58.25;18.60;30.30;;;;;;4978358;28;8770;-63
2022/03/29 08:31:49;;;;;;;;;70.00;56.50;18.70;30.70;;;;;;4978167;28;8869;-66
2022/03/29 08:34:16;;;;;;;;;72.50;57.00;18.90;30.00;;;;;;4978020;28;8758;-63
2022/03/29 08:36:43;;;;;;;;;68.50;54.75;18.90;29.80;;;;;;4978252;28;8777;-64
2022/03/29 08:39:10;;;;;;;;;64.25;51.25;18.80;29.10;;;;;;4960603;28;8830;-63
2022/03/29 08:41:46;;;;;;;;;71.50;56.75;18.60;28.90;;;;;;4978167;28;9444;-63
2022/03/29 08:44:12;;;;;;;;;60.00;48.75;18.60;28.40;;;;;;4974714;28;8770;-63
2022/03/29 08:46:41;;;;;;;;;64.50;52.50;18.60;28.60;;;;;;4977896;28;8797;-64
2022/03/29 08:49:08;;;;;;;;;65.75;53.00;18.80;27.70;;;;;;4977854;28;8778;-62
2022/03/29 08:51:36;;;;;;;;;71.75;57.00;18.80;28.00;;;;;;4960708;28;8793;-63
2022/03/29 08:54:03;;;;;;;;;67.00;54.25;19.00;27.90;;;;;;4978034;28;8813;-65
2022/03/29 08:56:29;;;;;;;;;62.25;50.75;19.40;27.60;;;;;;4977768;28;8790;-64
2022/03/29 08:58:56;;;;;;;;;68.25;54.25;19.10;26.80;;;;;;4977674;28;8846;-64
2022/03/29 09:01:23;;;;;;;;;65.00;52.00;19.20;27.40;;;;;;4977302;28;8830;-68
2022/03/29 09:04:07;;;;;;;;;63.50;49.50;19.30;26.60;;;;;;4977069;28;8810;-63
2022/03/29 09:06:54;;;;;;;;;67.75;54.75;19.50;26.50;;;;;;4977833;28;8762;-64
2022/03/29 09:09:41;;;;;;;;;62.00;49.00;19.60;26.70;;;;;;4977231;28;8792;-65
2022/03/29 09:12:12;;;;;;;;;62.00;50.50;19.50;26.60;;;;;;4977562;28;8836;-64
2022/03/29 09:14:58;;;;;;;;;61.00;50.00;19.50;26.60;;;;;;4977302;28;8785;-61
2022/03/29 09:17:35;;;;;;;;;62.75;50.00;19.40;27.10;;;;;;4977481;28;8846;-63
2022/03/29 09:20:07;;;;;;;;;62.00;50.50;19.60;26.10;;;;;;4977470;28;8812;-63
2022/03/29 09:22:42;;;;;;;;;64.75;52.00;19.80;26.40;;;;;;4977433;28;8782;-65
2022/03/29 09:25:13;;;;;;;;;63.25;49.25;19.80;25.80;;;;;;4977447;28;8762;-63
2022/03/29 09:27:57;;;;;;;;;60.00;50.25;19.80;25.90;;;;;;4977499;28;9536;-63
2022/03/29 09:30:26;;;;;;;;;57.75;47.00;19.80;25.80;;;;;;4977243;28;8759;-63
2022/03/29 09:32:57;;;;;;;;;62.75;50.25;19.90;26.40;;;;;;4976939;28;8782;-62
2022/03/29 09:35:24;;;;;;;;;65.25;52.75;20.00;25.90;;;;;;4976426;28;8758;-63
2022/03/29 09:37:49;;;;;;;;;64.50;51.75;19.90;25.90;;;;;;4976679;28;8893;-61
2022/03/29 09:40:16;;;;;;;;;63.25;51.50;19.70;26.30;;;;;;4976801;28;8848;-64
2022/03/29 09:42:58;;;;;;;;;60.00;49.75;19.80;25.90;;;;;;4977075;28;8833;-65
2022/03/29 09:45:50;;;;;;;;;57.00;46.00;20.30;25.60;;;;;;4976923;28;8786;-62
2022/03/29 09:48:42;;;;;;;;;61.75;50.00;20.40;25.40;;;;;;4977092;28;9453;-62
2022/03/29 09:51:08;;;;;;;;;66.75;55.50;20.40;25.50;;;;;;4970417;28;8926;-63
2022/03/29 09:53:47;;;;;;;;;62.50;49.75;20.30;26.20;;;;;;4976598;28;8881;-63
2022/03/29 09:56:15;;;;;;;;;60.75;49.25;20.60;25.50;;;;;;4976674;28;8762;-64
2022/03/29 09:58:42;;;;;;;;;64.00;52.00;20.60;24.80;;;;;;4976488;28;8758;-66
2022/03/29 10:01:23;;;;;;;;;66.50;52.75;20.60;24.90;;;;;;4976417;28;8830;-65
2022/03/29 10:03:51;;;;;;;;;62.25;50.75;20.60;25.40;;;;;;4976570;28;8762;-63
2022/03/29 10:06:18;;;;;;;;;64.25;51.75;20.80;25.60;;;;;;4959773;28;8786;-62
2022/03/29 10:11:33;;;;;;;;;63.75;52.75;20.80;25.40;;;;;;4976402;28;8762;-62
2022/03/29 10:14:00;;;;;;;;;64.00;53.00;20.80;25.70;;;;;;4976331;28;9491;-61
2022/03/29 10:16:28;;;;;;;;;65.25;51.75;21.10;24.80;;;;;;4976238;28;8759;-62
2022/03/29 10:18:55;;;;;;;;;60.50;50.25;21.40;25.60;;;;;;4976096;28;8840;-61
2022/03/29 10:21:21;;;;;;;;;59.00;48.50;21.40;25.20;;;;;;4975203;28;8850;-63
2022/03/29 10:23:49;;;;;;;;;60.75;50.00;21.30;25.30;;;;;;4976038;28;8778;-63
2022/03/29 10:26:26;;;;;;;;;65.50;52.75;21.70;25.50;;;;;;4959094;28;8783;-61
2022/03/29 10:28:53;;;;;;;;;66.00;53.25;21.70;25.10;;;;;;4976099;28;8802;-60
2022/03/29 10:31:36;;;;;;;;;65.75;53.75;22.00;24.50;;;;;;4975943;28;8790;-69
2022/03/29 10:34:11;;;;;;;;;66.50;52.75;22.00;24.20;;;;;;4972251;28;8833;-68
2022/03/29 10:37:11;;;;;;;;;67.25;54.50;22.00;23.80;;;;;;4965207;28;9467;-65
2022/03/29 10:39:46;;;;;;;;;65.75;52.00;22.10;24.80;;;;;;4966976;28;9523;-64
2022/03/29 10:42:31;;;;;;;;;68.25;54.75;22.60;24.70;;;;;;4956506;28;8788;-62
2022/03/29 10:44:58;;;;;;;;;63.00;51.75;22.90;24.70;;;;;;4967061;28;8806;-62
2022/03/29 10:47:29;;;;;;;;;63.50;51.50;23.00;23.70;;;;;;4956195;28;8811;-62
2022/03/29 10:49:55;;;;;;;;;68.25;54.50;23.50;24.20;;;;;;4956442;28;8753;-65
2022/03/29 10:52:21;;;;;;;;;68.75;54.75;23.80;24.40;;;;;;4956560;28;8802;-63
2022/03/29 10:54:47;;;;;;;;;65.25;52.50;23.70;23.40;;;;;;4964917;28;8770;-63
2022/03/29 10:57:24;;;;;;;;;66.25;53.75;23.50;23.10;;;;;;4958574;28;8800;-63
2022/03/29 11:00:11;;;;;;;;;66.00;52.75;23.40;23.60;;;;;;4956235;28;8808;-62
2022/03/29 11:02:37;;;;;;;;;66.25;54.50;23.40;23.30;;;;;;4955870;28;8875;-64
2022/03/29 11:05:04;;;;;;;;;64.25;52.25;24.00;23.60;;;;;;4956198;28;8756;-64
2022/03/29 11:07:37;;;;;;;;;69.00;56.50;24.20;24.40;;;;;;4958558;28;8776;-63
2022/03/29 11:10:12;;;;;;;;;67.00;54.00;24.70;23.50;;;;;;4964915;28;9435;-64
2022/03/29 11:12:43;;;;;;;;;66.75;53.75;24.30;22.80;;;;;;4956201;28;8886;-63
2022/03/29 11:15:24;;;;;;;;;61.75;49.25;24.50;23.70;;;;;;4976434;28;8811;-63
2022/03/29 11:17:56;;;;;;;;;68.00;54.00;24.50;22.30;;;;;;4972743;28;8919;-62
2022/03/29 11:20:52;;;;;;;;;65.25;51.50;25.10;21.50;;;;;;4972540;28;8806;-63
2022/03/29 11:23:31;;;;;;;;;66.75;54.50;25.60;21.40;;;;;;4971090;28;8889;-64
2022/03/29 11:26:03;;;;;;;;;66.25;54.00;25.30;21.70;;;;;;4958415;28;8787;-63
2022/03/29 11:28:30;;;;;;;;;69.25;55.25;24.90;22.10;;;;;;4971988;28;8814;-62
2022/03/29 11:30:56;;;;;;;;;65.00;52.50;25.10;22.00;;;;;;4975184;28;8907;-64
2022/03/29 11:33:31;;;;;;;;;66.75;53.25;24.80;21.50;;;;;;4975151;28;8819;-67
2022/03/29 11:35:57;;;;;;;;;64.00;52.00;24.60;22.80;;;;;;4975339;28;8779;-62
2022/03/29 11:38:44;;;;;;;;;67.75;54.50;24.90;24.20;;;;;;4975273;28;8907;-64
2022/03/29 11:41:39;;;;;;;;;68.00;53.75;25.10;21.60;;;;;;4975630;28;8819;-63
2022/03/29 11:44:14;;;;;;;;;65.25;53.00;25.90;21.10;;;;;;4915629;29;8827;-69
2022/03/29 11:46:49;;;;;;;;;67.50;53.75;26.30;21.80;;;;;;4913941;29;8924;-67
2022/03/29 11:49:20;;;;;;;;;64.50;52.25;26.90;20.80;;;;;;4915822;29;8787;-64
2022/03/29 11:52:18;;;;;;;;;63.50;52.75;27.00;20.10;;;;;;4915967;29;8783;-66
2022/03/29 11:54:48;;;;;;;;;62.25;49.75;26.60;19.70;;;;;;4915782;29;8783;-67
2022/03/29 11:57:27;;;;;;;;;59.25;49.25;26.10;21.90;;;;;;4915868;29;8868;-68
2022/03/29 11:59:55;;;;;;;;;59.00;49.75;26.30;21.00;;;;;;4917276;29;8966;-67
2022/03/29 12:02:22;;;;;;;;;57.00;47.75;26.90;20.50;;;;;;4919041;29;8866;-70
2022/03/29 12:04:51;;;;;;;;;62.00;51.25;27.50;20.00;;;;;;4919159;29;8779;-69
2022/03/29 12:07:32;;;;;;;;;56.75;47.75;28.20;19.00;;;;;;4919077;29;9454;-72
2022/03/29 12:10:01;;;;;;;;;58.00;48.25;28.70;18.30;;;;;;4919119;29;8795;-73
2022/03/29 12:12:27;;;;;;;;;64.00;53.00;28.40;18.40;;;;;;4918888;29;8815;-72
2022/03/29 12:15:04;;;;;;;;;57.75;48.50;29.20;18.70;;;;;;4918865;29;8890;-66
2022/03/29 12:17:30;;;;;;;;;60.00;49.75;29.40;18.20;;;;;;4903239;29;8783;-67
2022/03/29 12:19:57;;;;;;;;;61.50;50.50;30.10;18.70;;;;;;4935521;28;8802;-66
2022/03/29 12:22:26;;;;;;;;;54.50;45.75;29.70;17.80;;;;;;4978434;28;8794;-67
2022/03/29 12:24:55;;;;;;;;;60.75;50.50;29.40;18.40;;;;;;4978402;28;8775;-67
2022/03/29 12:27:21;;;;;;;;;54.50;46.25;30.30;17.20;;;;;;4976172;28;8769;-65
2022/03/29 12:29:51;;;;;;;;;64.00;51.75;29.90;16.90;;;;;;4967415;28;8781;-65
2022/03/29 12:32:18;;;;;;;;;62.75;52.25;29.70;18.00;;;;;;4958841;28;8764;-65
2022/03/29 12:34:53;;;;;;;;;63.75;51.75;30.40;16.80;;;;;;4958696;28;8768;-65
2022/03/29 12:37:19;;;;;;;;;61.75;51.25;31.20;16.30;;;;;;4964235;28;9450;-64
2022/03/29 12:39:45;;;;;;;;;59.75;50.00;30.20;17.80;;;;;;4971679;28;8947;-62
2022/03/29 12:42:16;;;;;;;;;57.75;48.25;30.40;17.10;;;;;;4967205;28;8902;-61
2022/03/29 12:44:47;;;;;;;;;59.25;49.25;30.10;16.50;;;;;;4960930;28;8849;-62
2022/03/29 12:47:15;;;;;;;;;56.75;47.50;30.00;16.70;;;;;;4976887;28;8787;-64
2022/03/29 12:49:41;;;;;;;;;52.50;45.00;30.40;16.60;;;;;;4977776;28;8771;-62
2022/03/29 12:52:11;;;;;;;;;56.25;47.50;30.50;16.90;;;;;;4977912;28;8791;-62
2022/03/29 12:54:48;;;;;;;;;60.50;49.50;30.60;17.00;;;;;;4978177;28;8802;-62